»·PEaware :: QXE2012 KPDX-KBZN

QXE2012 :: KPDX-KBZN

FLIGHT INFORMATION

Flight Status: Arrived
Operator:
Horizon Air
More flights by this operator :: More flights under this callsign
Pilot: Anonymous 16594 (16594)
Aircraft: DEHAVILLAND DASH 8 400
(DH8D)
More flights by this aircraft type
Origin: KPDX Portland Intl
United States
Destination: KBZN Gallatin
United States
More flights between these airports :: More routes between these airports
Route: +LAVAA6 PDT J16 HIA
File this flight plan on PilotEdge
Remarks:
Altitude:
(Current/Filed)
25,000ft
Speed:
(Current/Filed)
316kts
Departed: 26-Aug-18 08:39 AM
Arrived: 26-Aug-18 10:21 AM
Distance/Time
Traveled:
479nm/1:42
Distance/Time
To Go:
Arrived

Flight Plot

Page will automatically refresh every two minutes.

Flight plan parsing failed; only flown route is shown


Map Options




Map Legend


Flown Route
Filed Route
Departure Airport
Arrival Airport
Navaid (VOR, NDB)
Fix

Horizontal Profiles

Position Reports

Time Latitude Longitude Heading Altitude Ground
Speed
26-Aug-18 08:13 45.587771 -122.594411 34 37ft 0kts
26-Aug-18 08:14 45.587771 -122.594411 34 37ft 0kts
26-Aug-18 08:15 45.587771 -122.594411 34 37ft 0kts
26-Aug-18 08:16 45.587771 -122.594411 34 37ft 0kts
26-Aug-18 08:17 45.587771 -122.594411 34 37ft 0kts
26-Aug-18 08:18 45.587771 -122.594411 34 37ft 0kts
26-Aug-18 08:19 45.587771 -122.594411 34 37ft 0kts
26-Aug-18 08:20 45.587771 -122.594411 34 37ft 0kts
26-Aug-18 08:21 45.587771 -122.594411 34 37ft 0kts
26-Aug-18 08:22 45.587771 -122.594411 34 37ft 0kts
26-Aug-18 08:23 45.587771 -122.594411 34 37ft 0kts
26-Aug-18 08:24 45.587771 -122.594411 34 37ft 0kts
26-Aug-18 08:25 45.587771 -122.594411 34 37ft 0kts
26-Aug-18 08:26 45.587771 -122.594411 34 37ft 0kts
26-Aug-18 08:27 45.587771 -122.594411 34 37ft 0kts
26-Aug-18 08:28 45.587771 -122.594411 34 37ft 0kts
26-Aug-18 08:29 45.587771 -122.594411 34 37ft 0kts
26-Aug-18 08:30 45.587771 -122.594411 34 37ft 0kts
26-Aug-18 08:31 45.587771 -122.594411 34 37ft 0kts
26-Aug-18 08:32 45.587771 -122.594411 34 37ft 0kts
26-Aug-18 08:33 45.587219 -122.594950 34 37ft 5kts
26-Aug-18 08:34 45.586624 -122.594338 130 37ft 11kts
26-Aug-18 08:35 45.584955 -122.591588 136 37ft 11kts
26-Aug-18 08:36 45.583180 -122.587454 119 37ft 13kts
26-Aug-18 08:37 45.581296 -122.583763 203 37ft 0kts
26-Aug-18 08:38 45.581299 -122.583762 203 37ft 0kts
26-Aug-18 08:39 45.580811 -122.584836 296 37ft 0kts
26-Aug-18 08:40 45.591897 -122.615082 294 999ft 134kts
26-Aug-18 08:41 45.613783 -122.665153 302 3739ft 151kts
26-Aug-18 08:42 45.638242 -122.723574 299 6392ft 183kts
26-Aug-18 08:43 45.668886 -122.781381 340 9283ft 192kts
26-Aug-18 08:44 45.721823 -122.767732 13 11908ft 199kts
26-Aug-18 08:45 45.753693 -122.700588 74 14149ft 236kts
26-Aug-18 08:46 45.757222 -122.603222 82 16043ft 249kts
26-Aug-18 08:47 45.755864 -122.501487 83 17719ft 258kts
26-Aug-18 08:48 45.754441 -122.396366 82 19063ft 273kts
26-Aug-18 08:49 45.753048 -122.284709 83 20210ft 283kts
26-Aug-18 08:50 45.751439 -122.170884 82 21338ft 287kts
26-Aug-18 08:51 45.749766 -122.055210 82 22338ft 292kts
26-Aug-18 08:52 45.747946 -121.937413 82 23248ft 296kts
26-Aug-18 08:53 45.746098 -121.818533 81 24050ft 299kts
26-Aug-18 08:54 45.745519 -121.698532 80 24733ft 303kts
26-Aug-18 08:55 45.745029 -121.576001 81 25074ft 317kts
26-Aug-18 08:56 45.744349 -121.445675 82 25078ft 336kts
26-Aug-18 08:57 45.743181 -121.309838 83 25071ft 348kts
26-Aug-18 08:58 45.741965 -121.170658 83 25066ft 355kts
26-Aug-18 08:59 45.740448 -121.028079 84 25064ft 360kts
26-Aug-18 09:00 45.738754 -120.884438 85 25063ft 363kts
26-Aug-18 09:01 45.736921 -120.739068 85 25062ft 366kts
26-Aug-18 09:02 45.734839 -120.592877 86 25060ft 369kts
26-Aug-18 09:03 45.732539 -120.445642 86 25055ft 371kts
26-Aug-18 09:04 45.730061 -120.297954 87 25053ft 372kts
26-Aug-18 09:05 45.727412 -120.149662 88 25051ft 373kts
26-Aug-18 09:06 45.724496 -120.001120 88 25050ft 374kts
26-Aug-18 09:07 45.721473 -119.852303 88 25048ft 374kts
26-Aug-18 09:08 45.718190 -119.703371 88 25048ft 375kts
26-Aug-18 09:09 45.714760 -119.554291 88 25047ft 375kts
26-Aug-18 09:10 45.711124 -119.405407 89 25047ft 375kts
26-Aug-18 09:11 45.707322 -119.255797 89 25047ft 375kts
26-Aug-18 09:12 45.703285 -119.106512 89 25047ft 375kts
26-Aug-18 09:13 45.699064 -118.957363 89 25050ft 375kts
26-Aug-18 09:14 45.704975 -118.809383 81 25055ft 371kts
26-Aug-18 09:15 45.713203 -118.662135 83 25057ft 372kts
26-Aug-18 09:16 45.720477 -118.514880 83 25067ft 371kts
26-Aug-18 09:17 45.727807 -118.367654 83 25078ft 371kts
26-Aug-18 09:18 45.734873 -118.220178 84 25082ft 371kts
26-Aug-18 09:19 45.741781 -118.072830 84 25078ft 371kts
26-Aug-18 09:20 45.748492 -117.925638 84 25064ft 371kts
26-Aug-18 09:21 45.754985 -117.778436 84 25059ft 371kts
26-Aug-18 09:22 45.761277 -117.630926 83 25057ft 371kts
26-Aug-18 09:23 45.767181 -117.483350 83 25056ft 372kts
26-Aug-18 09:24 45.773303 -117.334080 83 25053ft 373kts
26-Aug-18 09:25 45.779067 -117.185763 83 25051ft 375kts
26-Aug-18 09:26 45.784734 -117.036581 83 25051ft 375kts
26-Aug-18 09:27 45.790163 -116.887567 83 25050ft 376kts
26-Aug-18 09:28 45.795440 -116.737930 83 25052ft 376kts
26-Aug-18 09:29 45.800502 -116.588539 83 25051ft 375kts
26-Aug-18 09:30 45.805403 -116.439532 83 25053ft 375kts
26-Aug-18 09:31 45.810084 -116.289797 83 25054ft 374kts
26-Aug-18 09:32 45.814552 -116.140870 83 25054ft 374kts
26-Aug-18 09:33 45.818837 -115.991596 84 25054ft 374kts
26-Aug-18 09:34 45.822951 -115.842748 84 25054ft 374kts
26-Aug-18 09:35 45.826856 -115.694041 84 25053ft 374kts
26-Aug-18 09:36 45.830542 -115.545018 84 25050ft 374kts
26-Aug-18 09:37 45.834047 -115.396109 84 25046ft 375kts
26-Aug-18 09:38 45.837352 -115.246334 84 25044ft 375kts
26-Aug-18 09:39 45.840496 -115.096709 85 25043ft 377kts
26-Aug-18 09:40 45.843448 -114.946643 85 25041ft 378kts
26-Aug-18 09:41 45.846044 -114.796084 85 25039ft 378kts
26-Aug-18 09:42 45.848337 -114.645080 85 25038ft 378kts
26-Aug-18 09:43 45.850694 -114.494419 85 25038ft 378kts
26-Aug-18 09:44 45.852875 -114.343905 85 25036ft 377kts
26-Aug-18 09:45 45.854800 -114.193470 85 25034ft 377kts
26-Aug-18 09:46 45.856533 -114.043388 86 25029ft 376kts
26-Aug-18 09:47 45.858115 -113.893667 86 25031ft 376kts
26-Aug-18 09:48 45.859464 -113.743705 86 25031ft 376kts
26-Aug-18 09:49 45.860659 -113.593995 86 25033ft 376kts
26-Aug-18 09:50 45.861639 -113.444440 87 25036ft 377kts
26-Aug-18 09:51 45.862434 -113.294025 87 25039ft 377kts
26-Aug-18 09:52 45.863096 -113.142705 88 25043ft 378kts
26-Aug-18 09:53 45.863497 -112.992805 88 25047ft 380kts
26-Aug-18 09:54 45.863651 -112.841617 89 25053ft 380kts
26-Aug-18 09:55 45.863593 -112.689729 90 25052ft 380kts
26-Aug-18 09:56 45.863334 -112.538284 91 23258ft 371kts
26-Aug-18 09:57 45.862926 -112.393586 91 21439ft 352kts
26-Aug-18 09:58 45.862442 -112.261724 92 18941ft 315kts
26-Aug-18 09:59 45.857318 -112.141697 109 16436ft 288kts
26-Aug-18 10:00 45.833920 -112.036622 111 13950ft 270kts
26-Aug-18 10:01 45.812505 -111.935986 110 11446ft 258kts
26-Aug-18 10:02 45.792572 -111.844552 107 10042ft 211kts
26-Aug-18 10:03 45.773362 -111.753140 107 10029ft 261kts
26-Aug-18 10:04 45.751454 -111.649821 108 10011ft 280kts
26-Aug-18 10:05 45.740416 -111.546098 74 8217ft 257kts
26-Aug-18 10:06 45.759892 -111.451479 73 6896ft 227kts
26-Aug-18 10:07 45.777077 -111.385757 50 6252ft 189kts
26-Aug-18 10:08 45.818721 -111.351280 319 6076ft 147kts
26-Aug-18 10:09 45.854184 -111.381746 330 5828ft 149kts
26-Aug-18 10:10 45.882848 -111.413620 315 5467ft 156kts
26-Aug-18 10:11 45.912406 -111.468178 289 5066ft 146kts
26-Aug-18 10:12 45.910268 -111.514296 241 5062ft 163kts
26-Aug-18 10:13 45.874922 -111.569370 193 4597ft 158kts
26-Aug-18 10:14 45.851459 -111.533554 113 5612ft 180kts
26-Aug-18 10:15 45.832819 -111.444823 102 5671ft 254kts
26-Aug-18 10:16 45.811454 -111.330293 106 6196ft 258kts
26-Aug-18 10:17 45.790561 -111.251319 114 5980ft 253kts
26-Aug-18 10:18 45.753149 -111.171405 134 5647ft 204kts
26-Aug-18 10:19 45.725832 -111.113434 73 5798ft 145kts
26-Aug-18 10:20 45.754875 -111.119000 307 4922ft 137kts
26-Aug-18 10:21 45.777382 -111.151526 312 4479ft 57kts
26-Aug-18 10:22 45.779217 -111.155722 243 4478ft 8kts
26-Aug-18 10:23 45.778125 -111.159118 230 4479ft 7kts
26-Aug-18 10:24 45.777984 -111.159331 225 4478ft 0kts
26-Aug-18 10:25 45.777984 -111.159331 225 4478ft 0kts
26-Aug-18 10:26 45.777984 -111.159331 225 4478ft 0kts
26-Aug-18 10:27 45.777984 -111.159332 225 4478ft 0kts
26-Aug-18 10:28 45.777984 -111.159332 225 4478ft 0kts
26-Aug-18 10:29 45.777984 -111.159332 225 4478ft 0kts

Navigation Log

Ident Type
Flight plan parsing failed, navigation log unavailable